Arenas Valley, New Mexico
Current Conditions -  °F | °C
As of 10:55 PM on Wednesday 17 Dec 2014 (Local Time) from KSVC Reporting Station
Broken Clouds Broken Clouds  
Wind Chill: 29°   Ceiling: 4700
Heat Index: 36°   Visibility: 10mi
Dew Point: 34°   Wind: 9mph
Humidity: 93%   Direction: 310°NW
Pressure: 30.17"   Gusts: NA
Location:  32.79°N, 108.18°W
Report Text: KSVC 180555Z AUTO 31008KT 10SM FEW023 SCT031 BKN047 02/01 A3017 RMK AO2 P0002
Loading
Personal Weather Stations






























Interactive Weather Map New forecast layout! Learn more

10-Day Weather Forecast

Advertisements
Track Severe Weather on mobile